Time;durP1;ratioP1;P1;durP2;ratioP2;P2;SDS_P1;SDS_P2;PMS_P1;PMS_P2;Temp;Humidity;BMP_temperature;BMP_pressure;BME280_temperature;BME280_humidity;BME280_pressure;Samples;Min_cycle;Max_cycle;Signal;HPM_P1;HPM_P2
2022/11/24 00:01:01;;;;;;;8.93;4.87;;;;;;;;;;5020494;28;20181;-87
2022/11/24 00:04:06;;;;;;;8.60;5.07;;;;;;;;;;5020445;28;20690;-88
2022/11/24 00:07:10;;;;;;;14.33;5.70;;;;;;;;;;5031530;28;20173;-88
2022/11/24 00:10:14;;;;;;;9.00;4.83;;;;;;;;;;5054285;28;20180;-88
2022/11/24 00:13:18;;;;;;;10.47;4.67;;;;;;;;;;5020179;28;20184;-88
2022/11/24 00:16:25;;;;;;;9.30;5.00;;;;;;;;;;5020388;28;20180;-88
2022/11/24 00:19:29;;;;;;;12.20;4.43;;;;;;;;;;5031297;28;20200;-88
2022/11/24 00:22:33;;;;;;;10.57;4.37;;;;;;;;;;5019693;28;20195;-88
2022/11/24 00:25:37;;;;;;;12.83;4.17;;;;;;;;;;5019697;28;20223;-88
2022/11/24 00:28:43;;;;;;;10.33;4.30;;;;;;;;;;5031109;28;20654;-88
2022/11/24 00:31:47;;;;;;;12.30;4.27;;;;;;;;;;5042609;28;20196;-88
2022/11/24 00:34:52;;;;;;;11.30;4.57;;;;;;;;;;5020050;28;20219;-88
2022/11/24 00:37:56;;;;;;;11.93;4.90;;;;;;;;;;5019137;28;20203;-88
2022/11/24 00:41:00;;;;;;;12.47;4.60;;;;;;;;;;5042612;28;20184;-88
2022/11/24 00:44:05;;;;;;;11.57;4.70;;;;;;;;;;5020048;28;20219;-88
2022/11/24 00:47:09;;;;;;;12.93;4.47;;;;;;;;;;5030819;28;20521;-88
2022/11/24 00:50:13;;;;;;;9.93;4.83;;;;;;;;;;5030446;28;20537;-88
2022/11/24 00:53:17;;;;;;;11.33;4.37;;;;;;;;;;5030641;28;20180;-88
2022/11/24 00:56:23;;;;;;;10.77;4.47;;;;;;;;;;5019331;28;20180;-87
2022/11/24 00:59:27;;;;;;;12.90;4.70;;;;;;;;;;5019334;28;20184;-87
2022/11/24 01:02:31;;;;;;;9.30;4.60;;;;;;;;;;5019535;28;20172;-88
2022/11/24 01:05:36;;;;;;;10.87;5.00;;;;;;;;;;5030612;28;20219;-88
2022/11/24 01:08:41;;;;;;;7.33;4.50;;;;;;;;;;5019648;28;20619;-88
2022/11/24 01:12:00;;;;;;;7.47;4.20;;;;;;;;;;5030578;28;20180;-87
2022/11/24 01:15:05;;;;;;;10.43;3.87;;;;;;;;;;5019230;28;20223;-88
2022/11/24 01:18:12;;;;;;;10.93;3.50;;;;;;;;;;5019401;28;20212;-88
2022/11/24 01:21:16;;;;;;;13.40;3.97;;;;;;;;;;5019268;28;20184;-88
2022/11/24 01:24:20;;;;;;;10.10;3.60;;;;;;;;;;5018946;28;20228;-88
2022/11/24 01:27:24;;;;;;;9.77;3.47;;;;;;;;;;5019273;28;20180;-88
2022/11/24 01:30:28;;;;;;;9.00;3.03;;;;;;;;;;5030298;28;20180;-88
2022/11/24 01:33:34;;;;;;;6.83;3.23;;;;;;;;;;5019301;28;20547;-88
2022/11/24 01:36:38;;;;;;;7.90;2.83;;;;;;;;;;5019151;28;20184;-88
2022/11/24 01:39:42;;;;;;;7.03;2.90;;;;;;;;;;5041723;28;20180;-88
2022/11/24 01:42:49;;;;;;;6.23;2.80;;;;;;;;;;5019101;28;20531;-88
2022/11/24 01:45:54;;;;;;;8.00;3.20;;;;;;;;;;5030065;28;20220;-88
2022/11/24 01:49:07;;;;;;;5.30;3.03;;;;;;;;;;5032876;28;20176;-88
2022/11/24 01:52:17;;;;;;;6.40;2.63;;;;;;;;;;5045551;28;20542;-88
2022/11/24 01:55:29;;;;;;;7.67;3.17;;;;;;;;;;5023344;28;20215;-88
2022/11/24 01:58:35;;;;;;;6.70;3.00;;;;;;;;;;5033773;28;20204;-88
2022/11/24 02:01:39;;;;;;;9.73;3.30;;;;;;;;;;5034538;28;20172;-88
2022/11/24 02:04:44;;;;;;;7.03;2.87;;;;;;;;;;5022492;28;20215;-88
2022/11/24 02:07:50;;;;;;;7.40;2.87;;;;;;;;;;5034188;28;20647;-88
2022/11/24 02:10:54;;;;;;;7.03;3.17;;;;;;;;;;5013818;28;20184;-88
2022/11/24 02:13:58;;;;;;;9.73;2.97;;;;;;;;;;5013974;28;20216;-88
2022/11/24 02:17:03;;;;;;;7.20;2.80;;;;;;;;;;5013970;28;20209;-87
2022/11/24 02:20:09;;;;;;;10.33;3.10;;;;;;;;;;5013904;28;20192;-88
2022/11/24 02:23:32;;;;;;;6.03;2.97;;;;;;;;;;5014009;28;20181;-88
2022/11/24 02:26:42;;;;;;;11.03;3.00;;;;;;;;;;5013759;28;20184;-88
2022/11/24 02:29:47;;;;;;;6.13;3.20;;;;;;;;;;5002063;28;20177;-88
2022/11/24 02:32:51;;;;;;;7.67;3.33;;;;;;;;;;5013333;28;20193;-87
2022/11/24 02:35:56;;;;;;;10.97;3.20;;;;;;;;;;5013392;28;20216;-88
2022/11/24 02:39:00;;;;;;;9.60;2.80;;;;;;;;;;5013339;28;20208;-87
2022/11/24 02:42:09;;;;;;;5.60;2.87;;;;;;;;;;5002198;28;20535;-88
2022/11/24 02:45:15;;;;;;;13.97;3.30;;;;;;;;;;5013245;28;20220;-88
2022/11/24 02:48:19;;;;;;;12.10;3.07;;;;;;;;;;5001768;28;20189;-88
2022/11/24 02:51:23;;;;;;;5.73;2.93;;;;;;;;;;5001964;28;20181;-88
2022/11/24 02:54:27;;;;;;;5.50;2.67;;;;;;;;;;5002044;28;20217;-88
2022/11/24 02:57:31;;;;;;;8.30;2.70;;;;;;;;;;5002144;28;20655;-87
2022/11/24 03:00:35;;;;;;;6.40;2.70;;;;;;;;;;5012751;28;20620;-88
2022/11/24 03:03:39;;;;;;;7.93;2.43;;;;;;;;;;5012919;28;20185;-88
2022/11/24 03:06:43;;;;;;;6.40;2.30;;;;;;;;;;5013198;28;20185;-88
2022/11/24 03:09:47;;;;;;;4.40;2.87;;;;;;;;;;5001849;28;20181;-88
2022/11/24 03:12:52;;;;;;;6.37;2.10;;;;;;;;;;5013257;28;20181;-88
2022/11/24 03:15:57;;;;;;;12.70;2.80;;;;;;;;;;5012490;28;20691;-88
2022/11/24 03:19:01;;;;;;;8.30;2.40;;;;;;;;;;5012866;28;20217;-87
2022/11/24 03:22:05;;;;;;;6.37;2.30;;;;;;;;;;5013091;28;20180;-88
2022/11/24 03:25:09;;;;;;;10.20;3.17;;;;;;;;;;5012540;28;20691;-88
2022/11/24 03:28:13;;;;;;;8.90;2.70;;;;;;;;;;5001740;28;20192;-88
2022/11/24 03:31:17;;;;;;;9.93;2.40;;;;;;;;;;5012745;28;20181;-88
2022/11/24 03:34:21;;;;;;;10.23;2.70;;;;;;;;;;5012420;28;20216;-88
2022/11/24 03:37:25;;;;;;;12.53;2.70;;;;;;;;;;5001197;28;20185;-87
2022/11/24 03:40:29;;;;;;;9.17;2.07;;;;;;;;;;5012353;28;20180;-88
2022/11/24 03:43:33;;;;;;;10.30;2.80;;;;;;;;;;5012336;28;20523;-88
2022/11/24 03:46:37;;;;;;;3.97;2.17;;;;;;;;;;5012112;28;20177;-88
2022/11/24 03:49:41;;;;;;;7.43;2.60;;;;;;;;;;5012033;28;20173;-88
2022/11/24 03:52:45;;;;;;;8.10;2.00;;;;;;;;;;5011997;28;20542;-87
2022/11/24 03:55:50;;;;;;;5.30;1.83;;;;;;;;;;5011801;28;20213;-88
2022/11/24 03:58:54;;;;;;;7.40;2.00;;;;;;;;;;5011939;28;20683;-88
2022/11/24 04:01:59;;;;;;;4.83;2.03;;;;;;;;;;5012368;28;20179;-88
2022/11/24 04:05:04;;;;;;;6.57;2.10;;;;;;;;;;5000508;28;20216;-88
2022/11/24 04:08:08;;;;;;;8.67;2.13;;;;;;;;;;5011892;28;20173;-88
2022/11/24 04:12:42;;;;;;;9.43;2.03;;;;;;;;;;5011294;28;20177;-88
2022/11/24 04:14:36;;;;;;;4.37;1.60;;;;;;;;;;5011587;28;20220;-87
2022/11/24 04:17:40;;;;;;;6.77;1.60;;;;;;;;;;5000417;28;20205;-88
2022/11/24 04:20:48;;;;;;;5.60;2.00;;;;;;;;;;5011871;28;20615;-88
2022/11/24 04:23:52;;;;;;;4.77;1.67;;;;;;;;;;5011276;28;20205;-88
2022/11/24 04:26:56;;;;;;;3.80;1.90;;;;;;;;;;5027574;23;20236;-87
2022/11/24 04:30:01;;;;;;;5.60;1.60;;;;;;;;;;5004414;28;20178;-89
2022/11/24 04:33:05;;;;;;;4.37;1.80;;;;;;;;;;5004419;28;20181;-88
2022/11/24 04:36:10;;;;;;;10.47;2.00;;;;;;;;;;4975511;28;20218;-87
2022/11/24 04:39:14;;;;;;;4.13;1.53;;;;;;;;;;4975425;28;20210;-87
2022/11/24 04:42:18;;;;;;;5.73;1.50;;;;;;;;;;4973151;28;20186;-87
2022/11/24 04:45:23;;;;;;;5.63;1.50;;;;;;;;;;4972982;28;20588;-87
2022/11/24 04:48:28;;;;;;;3.10;1.50;;;;;;;;;;4962214;28;20195;-88
2022/11/24 04:51:32;;;;;;;9.27;1.80;;;;;;;;;;4973087;28;20182;-87
2022/11/24 04:54:36;;;;;;;4.73;1.40;;;;;;;;;;4975568;28;20201;-88
2022/11/24 04:57:40;;;;;;;3.73;1.30;;;;;;;;;;4998062;28;20583;-87
2022/11/24 05:00:44;;;;;;;3.77;1.60;;;;;;;;;;5015463;28;20548;-87
2022/11/24 05:03:48;;;;;;;5.83;1.37;;;;;;;;;;5003378;28;20186;-87
2022/11/24 05:06:52;;;;;;;5.83;1.50;;;;;;;;;;5003225;28;20683;-87
2022/11/24 05:13:19;;;;;;;2.70;0.87;;;;;;;;;;5003065;28;20193;-87
2022/11/24 05:16:23;;;;;;;6.33;1.43;;;;;;;;;;5002677;28;20217;-87
2022/11/24 05:19:27;;;;;;;3.87;1.30;;;;;;;;;;4987594;28;20225;-87
2022/11/24 05:22:32;;;;;;;3.07;1.10;;;;;;;;;;4994402;28;20182;-88
2022/11/24 05:25:36;;;;;;;3.53;1.10;;;;;;;;;;4983147;28;20221;-88
2022/11/24 05:28:40;;;;;;;7.80;2.00;;;;;;;;;;4972322;28;20648;-87
2022/11/24 05:31:44;;;;;;;8.03;2.77;;;;;;;;;;4983489;28;20190;-88
2022/11/24 05:34:50;;;;;;;4.60;1.40;;;;;;;;;;4961216;28;20719;-87
2022/11/24 05:37:57;;;;;;;4.83;1.90;;;;;;;;;;4972337;28;20193;-87
2022/11/24 05:41:03;;;;;;;6.20;1.90;;;;;;;;;;4975034;28;20198;-86
2022/11/24 05:44:08;;;;;;;5.97;1.53;;;;;;;;;;4995786;28;20186;-87
2022/11/24 05:47:12;;;;;;;3.23;1.10;;;;;;;;;;4984656;28;20178;-86
2022/11/24 05:50:18;;;;;;;4.97;1.50;;;;;;;;;;4972723;28;20178;-86
2022/11/24 05:53:24;;;;;;;5.57;1.40;;;;;;;;;;4984946;28;20182;-87
2022/11/24 05:56:29;;;;;;;2.97;1.40;;;;;;;;;;4974196;28;20222;-87
2022/11/24 05:59:33;;;;;;;1.43;0.97;;;;;;;;;;4972613;28;20209;-87
2022/11/24 06:02:37;;;;;;;2.70;0.93;;;;;;;;;;4972453;28;20178;-85
2022/11/24 06:05:45;;;;;;;3.53;1.20;;;;;;;;;;4983375;28;20217;-87
2022/11/24 06:08:50;;;;;;;3.27;1.27;;;;;;;;;;5011935;28;20186;-87
2022/11/24 06:11:54;;;;;;;5.03;1.03;;;;;;;;;;5018712;28;20209;-88
2022/11/24 06:14:58;;;;;;;4.93;1.33;;;;;;;;;;4999019;28;20193;-87
2022/11/24 06:18:02;;;;;;;6.80;1.37;;;;;;;;;;4980468;28;20173;-88
2022/11/24 06:21:07;;;;;;;4.37;1.17;;;;;;;;;;4991490;28;20201;-87
2022/11/24 06:24:11;;;;;;;3.43;1.33;;;;;;;;;;4977129;28;20676;-87
2022/11/24 06:27:15;;;;;;;6.73;1.50;;;;;;;;;;4972661;28;20617;-87
2022/11/24 06:30:19;;;;;;;6.10;1.50;;;;;;;;;;4969684;28;20205;-88
2022/11/24 06:33:23;;;;;;;6.67;2.00;;;;;;;;;;4980613;28;20185;-87
2022/11/24 06:36:27;;;;;;;4.27;1.67;;;;;;;;;;4993922;28;20213;-87
2022/11/24 06:39:31;;;;;;;6.57;1.80;;;;;;;;;;4982447;28;20209;-87
2022/11/24 06:42:36;;;;;;;4.77;1.67;;;;;;;;;;4995241;28;20177;-88
2022/11/24 06:45:40;;;;;;;6.77;1.57;;;;;;;;;;4983808;28;20217;-88
2022/11/24 06:48:44;;;;;;;9.17;1.70;;;;;;;;;;4995611;28;20591;-87
2022/11/24 06:51:49;;;;;;;9.90;2.40;;;;;;;;;;4995481;28;20185;-87
2022/11/24 06:54:53;;;;;;;7.23;2.03;;;;;;;;;;4984091;28;20533;-87
2022/11/24 06:57:57;;;;;;;5.73;1.73;;;;;;;;;;5006067;28;20189;-87
2022/11/24 07:01:01;;;;;;;8.80;3.40;;;;;;;;;;4994893;28;20181;-87
2022/11/24 07:04:05;;;;;;;9.00;3.60;;;;;;;;;;4994672;28;20178;-88
2022/11/24 07:07:09;;;;;;;9.27;4.67;;;;;;;;;;4994719;28;20540;-87
2022/11/24 07:10:14;;;;;;;12.33;7.07;;;;;;;;;;4994318;28;20169;-87
2022/11/24 07:13:20;;;;;;;10.13;4.50;;;;;;;;;;5005780;28;20518;-88
2022/11/24 07:16:25;;;;;;;12.80;4.60;;;;;;;;;;4994299;28;20217;-87
2022/11/24 07:19:30;;;;;;;13.17;5.20;;;;;;;;;;4994459;28;20213;-88
2022/11/24 07:22:34;;;;;;;12.80;4.07;;;;;;;;;;5005972;28;20177;-88
2022/11/24 07:25:38;;;;;;;12.13;4.77;;;;;;;;;;5004785;28;20225;-88
2022/11/24 07:28:43;;;;;;;6.53;3.10;;;;;;;;;;4982776;28;20193;-87
2022/11/24 07:31:47;;;;;;;6.43;2.90;;;;;;;;;;4993460;28;20185;-87
2022/11/24 07:34:52;;;;;;;10.33;2.47;;;;;;;;;;4993901;28;20544;-88
2022/11/24 07:37:57;;;;;;;6.80;2.23;;;;;;;;;;4993218;28;20637;-88
2022/11/24 07:41:04;;;;;;;8.10;2.13;;;;;;;;;;4993467;28;20181;-88
2022/11/24 07:44:08;;;;;;;12.60;2.40;;;;;;;;;;4982161;28;20186;-87
2022/11/24 07:47:12;;;;;;;8.83;3.50;;;;;;;;;;5004254;28;20185;-88
2022/11/24 07:50:16;;;;;;;6.33;2.63;;;;;;;;;;4982172;28;20197;-89
2022/11/24 07:53:20;;;;;;;8.43;2.40;;;;;;;;;;4992797;28;20197;-88
2022/11/24 07:56:25;;;;;;;9.67;2.07;;;;;;;;;;4992956;28;20213;-88
2022/11/24 07:59:29;;;;;;;7.37;2.20;;;;;;;;;;4981906;28;20205;-88
2022/11/24 08:02:33;;;;;;;6.53;2.27;;;;;;;;;;4992816;28;20196;-87
2022/11/24 08:05:37;;;;;;;6.60;2.00;;;;;;;;;;4993620;28;20217;-88
2022/11/24 08:08:41;;;;;;;7.13;2.97;;;;;;;;;;4993787;28;20202;-88
2022/11/24 08:11:45;;;;;;;8.63;3.03;;;;;;;;;;5005001;28;20185;-88
2022/11/24 08:14:50;;;;;;;12.17;1.90;;;;;;;;;;4982285;28;20548;-88
2022/11/24 08:17:54;;;;;;;9.10;2.00;;;;;;;;;;5004490;28;20177;-87
2022/11/24 08:20:58;;;;;;;8.67;1.77;;;;;;;;;;4993399;28;20656;-87
2022/11/24 08:24:03;;;;;;;7.43;1.97;;;;;;;;;;4993633;28;20186;-88
2022/11/24 08:27:07;;;;;;;10.10;2.67;;;;;;;;;;4993476;28;20213;-87
2022/11/24 08:30:12;;;;;;;12.70;2.23;;;;;;;;;;4993439;28;20197;-88
2022/11/24 08:33:16;;;;;;;13.07;8.97;;;;;;;;;;4983431;28;20197;-88
2022/11/24 08:36:20;;;;;;;11.27;2.27;;;;;;;;;;4992769;28;20217;-88
2022/11/24 08:39:24;;;;;;;8.00;1.93;;;;;;;;;;4993421;28;20209;-88
2022/11/24 08:42:29;;;;;;;8.10;1.70;;;;;;;;;;4992979;28;20201;-88
2022/11/24 08:45:33;;;;;;;7.93;2.07;;;;;;;;;;4993523;28;20221;-88
2022/11/24 08:48:37;;;;;;;8.70;1.73;;;;;;;;;;4993492;28;20185;-88
2022/11/24 08:51:42;;;;;;;8.63;2.30;;;;;;;;;;4993202;28;20633;-87
2022/11/24 08:54:46;;;;;;;8.80;2.10;;;;;;;;;;4992437;28;20573;-88
2022/11/24 08:57:50;;;;;;;6.27;2.10;;;;;;;;;;4981398;28;20579;-87
2022/11/24 09:00:54;;;;;;;7.53;1.80;;;;;;;;;;4992610;28;20209;-88
2022/11/24 09:03:59;;;;;;;12.20;2.53;;;;;;;;;;4992293;28;20177;-88
2022/11/24 09:07:03;;;;;;;8.27;1.87;;;;;;;;;;4992671;28;20218;-88
2022/11/24 09:10:08;;;;;;;10.03;2.13;;;;;;;;;;4982099;28;20177;-88
2022/11/24 09:13:12;;;;;;;4.73;1.70;;;;;;;;;;4991811;28;20181;-87
2022/11/24 09:16:19;;;;;;;12.00;2.07;;;;;;;;;;4980543;28;20217;-88
2022/11/24 09:19:23;;;;;;;7.10;2.10;;;;;;;;;;4980701;28;20660;-87
2022/11/24 09:22:29;;;;;;;6.83;1.70;;;;;;;;;;4981053;28;20181;-88
2022/11/24 09:25:34;;;;;;;7.83;2.40;;;;;;;;;;5003022;28;20225;-87
2022/11/24 09:28:38;;;;;;;5.03;1.67;;;;;;;;;;4981816;28;20181;-88
2022/11/24 09:31:43;;;;;;;9.23;1.80;;;;;;;;;;4994212;28;20193;-88
2022/11/24 09:34:50;;;;;;;7.47;2.23;;;;;;;;;;4994007;28;20197;-87
2022/11/24 09:37:54;;;;;;;8.87;2.00;;;;;;;;;;4994539;28;20177;-87
2022/11/24 09:41:15;;;;;;;7.70;1.43;;;;;;;;;;4993620;28;20209;-88
2022/11/24 09:44:39;;;;;;;10.67;1.97;;;;;;;;;;4993906;28;20182;-87
2022/11/24 09:48:02;;;;;;;9.23;1.70;;;;;;;;;;5000464;28;20181;-87
2022/11/24 09:51:10;;;;;;;8.33;1.50;;;;;;;;;;5000824;28;20207;-87
2022/11/24 09:54:21;;;;;;;8.77;1.70;;;;;;;;;;5001118;28;20182;-88
2022/11/24 09:57:26;;;;;;;10.60;1.70;;;;;;;;;;5000301;28;20197;-88
2022/11/24 10:00:32;;;;;;;4.03;1.43;;;;;;;;;;4999446;28;20213;-87
2022/11/24 10:03:42;;;;;;;6.50;1.70;;;;;;;;;;4988478;28;20177;-88
2022/11/24 10:07:13;;;;;;;6.77;1.70;;;;;;;;;;4999086;28;20213;-88
2022/11/24 10:10:31;;;;;;;9.07;1.63;;;;;;;;;;5012796;28;20178;-88
2022/11/24 10:13:59;;;;;;;8.87;1.70;;;;;;;;;;5001966;28;20186;-88
2022/11/24 10:17:30;;;;;;;5.97;1.70;;;;;;;;;;5001802;28;20213;-88
2022/11/24 10:20:53;;;;;;;43.30;23.43;;;;;;;;;;4989070;28;20213;-88
2022/11/24 10:24:07;;;;;;;10.77;3.63;;;;;;;;;;4999461;28;20529;-87
2022/11/24 10:27:17;;;;;;;7.30;2.87;;;;;;;;;;5064384;23;20235;-89
2022/11/24 10:30:22;;;;;;;13.43;5.77;;;;;;;;;;5041709;28;20666;-89
2022/11/24 10:33:28;;;;;;;6.73;2.40;;;;;;;;;;5041684;28;20203;-89
2022/11/24 10:36:48;;;;;;;6.50;1.60;;;;;;;;;;5032812;28;20215;-88
2022/11/24 10:40:08;;;;;;;5.67;1.67;;;;;;;;;;5033265;28;20204;-88
2022/11/24 10:43:13;;;;;;;5.90;1.10;;;;;;;;;;5021808;28;20176;-88
2022/11/24 10:46:24;;;;;;;6.53;1.60;;;;;;;;;;5021627;28;20211;-89
2022/11/24 10:49:30;;;;;;;5.33;1.80;;;;;;;;;;5033608;28;20504;-89
2022/11/24 10:52:41;;;;;;;5.43;1.10;;;;;;;;;;5032830;28;20626;-89
2022/11/24 10:55:57;;;;;;;23.30;12.60;;;;;;;;;;5021867;28;20568;-88
2022/11/24 10:59:35;;;;;;;25.13;15.50;;;;;;;;;;5021448;28;20181;-89
2022/11/24 11:02:39;;;;;;;8.13;4.30;;;;;;;;;;5021596;28;20539;-89
2022/11/24 11:05:54;;;;;;;11.17;9.10;;;;;;;;;;5032842;28;20215;-89
2022/11/24 11:09:05;;;;;;;6.83;3.53;;;;;;;;;;5021455;28;20181;-89
2022/11/24 11:12:17;;;;;;;4.77;1.80;;;;;;;;;;5021488;28;20180;-89
2022/11/24 11:15:29;;;;;;;6.90;1.30;;;;;;;;;;5021525;28;20180;-90
2022/11/24 11:18:34;;;;;;;4.03;1.50;;;;;;;;;;5021412;28;20192;-90
2022/11/24 11:21:38;;;;;;;8.03;1.20;;;;;;;;;;5031570;28;20208;-90
2022/11/24 11:24:45;;;;;;;2.87;0.97;;;;;;;;;;5021078;28;20176;-89
2022/11/24 11:27:49;;;;;;;2.47;1.10;;;;;;;;;;5021250;28;20168;-88
2022/11/24 11:31:00;;;;;;;4.20;1.40;;;;;;;;;;5020863;28;20172;-88
2022/11/24 11:34:08;;;;;;;4.57;1.40;;;;;;;;;;5032632;28;20185;-90
2022/11/24 11:37:13;;;;;;;5.67;1.47;;;;;;;;;;5021024;28;20563;-89
2022/11/24 11:40:23;;;;;;;3.03;1.20;;;;;;;;;;5032199;28;20208;-90
2022/11/24 11:43:33;;;;;;;3.17;1.17;;;;;;;;;;5031877;28;20632;-90
2022/11/24 11:46:37;;;;;;;3.17;1.13;;;;;;;;;;5020938;28;20215;-91
2022/11/24 11:49:43;;;;;;;5.13;1.07;;;;;;;;;;5020754;28;20176;-90
2022/11/24 11:53:08;;;;;;;5.17;1.33;;;;;;;;;;5031684;28;20180;-90
2022/11/24 11:56:15;;;;;;;5.13;1.30;;;;;;;;;;5020663;28;20220;-90
2022/11/24 11:59:57;;;;;;;5.17;1.20;;;;;;;;;;5020318;28;20639;-90
2022/11/24 12:03:27;;;;;;;3.30;0.97;;;;;;;;;;5018739;28;20208;-90
2022/11/24 12:06:49;;;;;;;5.13;1.13;;;;;;;;;;5020471;28;20219;-90
2022/11/24 12:10:15;;;;;;;4.57;1.10;;;;;;;;;;5020211;28;20181;-90
2022/11/24 12:13:37;;;;;;;3.00;0.83;;;;;;;;;;5020144;28;20180;-90
2022/11/24 12:17:04;;;;;;;2.30;1.13;;;;;;;;;;5019963;28;20686;-90
2022/11/24 12:20:39;;;;;;;4.40;1.00;;;;;;;;;;5019981;28;20212;-89
2022/11/24 12:24:05;;;;;;;6.50;1.43;;;;;;;;;;5020117;28;20185;-89
2022/11/24 12:27:32;;;;;;;2.50;1.10;;;;;;;;;;5019691;28;20220;-90
2022/11/24 12:31:04;;;;;;;3.20;1.00;;;;;;;;;;5031091;28;20512;-89
2022/11/24 12:34:10;;;;;;;6.60;1.27;;;;;;;;;;5019267;28;20182;-90
2022/11/24 12:37:42;;;;;;;12.47;7.73;;;;;;;;;;5019385;28;20213;-90
2022/11/24 12:41:08;;;;;;;5.83;2.17;;;;;;;;;;5019585;28;20212;-90
2022/11/24 12:44:34;;;;;;;3.70;1.43;;;;;;;;;;5030660;28;20188;-89
2022/11/24 12:48:16;;;;;;;3.80;1.70;;;;;;;;;;5030841;28;20180;-90
2022/11/24 12:51:28;;;;;;;2.17;0.90;;;;;;;;;;5019622;28;20181;-90
2022/11/24 12:54:38;;;;;;;2.17;1.10;;;;;;;;;;5019490;28;20184;-90
2022/11/24 12:57:46;;;;;;;2.97;1.20;;;;;;;;;;5030472;28;20177;-90
2022/11/24 13:01:20;;;;;;;3.47;1.97;;;;;;;;;;5019109;28;20199;-89
2022/11/24 13:04:39;;;;;;;2.57;1.50;;;;;;;;;;5019393;28;20172;-90
2022/11/24 13:07:46;;;;;;;1.97;1.10;;;;;;;;;;5019217;28;20184;-89
2022/11/24 13:10:51;;;;;;;3.50;1.77;;;;;;;;;;5019189;28;20509;-89
2022/11/24 13:13:59;;;;;;;19.87;12.60;;;;;;;;;;5018842;28;20184;-90
2022/11/24 13:17:28;;;;;;;7.47;3.47;;;;;;;;;;5018946;28;20216;-89
2022/11/24 13:20:38;;;;;;;5.40;4.00;;;;;;;;;;5018780;28;20212;-90
2022/11/24 13:23:56;;;;;;;1.67;1.10;;;;;;;;;;5018950;28;20180;-90
2022/11/24 13:27:12;;;;;;;3.27;1.03;;;;;;;;;;5020704;28;20698;-89
2022/11/24 13:30:52;;;;;;;2.33;0.90;;;;;;;;;;5029822;28;20204;-89
2022/11/24 13:33:56;;;;;;;1.73;0.90;;;;;;;;;;5018963;28;20192;-90
2022/11/24 13:37:00;;;;;;;2.93;0.90;;;;;;;;;;5029809;28;20694;-90
2022/11/24 13:40:10;;;;;;;2.37;0.77;;;;;;;;;;5029993;28;20176;-89
2022/11/24 13:43:14;;;;;;;3.17;0.90;;;;;;;;;;5018760;28;20180;-89
2022/11/24 13:46:57;;;;;;;3.13;1.03;;;;;;;;;;5018551;28;20216;-90
2022/11/24 13:50:19;;;;;;;3.03;1.00;;;;;;;;;;5018775;28;20181;-90
2022/11/24 13:53:37;;;;;;;1.77;0.83;;;;;;;;;;5018465;28;20180;-90
2022/11/24 13:56:41;;;;;;;1.97;1.07;;;;;;;;;;5029819;28;20219;-89
2022/11/24 13:59:45;;;;;;;4.03;1.63;;;;;;;;;;5018243;28;20192;-89
2022/11/24 14:02:52;;;;;;;1.63;1.10;;;;;;;;;;5018507;28;20562;-90
2022/11/24 14:05:57;;;;;;;2.30;1.20;;;;;;;;;;5018409;28;20219;-89
2022/11/24 14:09:49;;;;;;;1.60;0.90;;;;;;;;;;5018290;28;20188;-89
2022/11/24 14:13:17;;;;;;;2.90;0.87;;;;;;;;;;4936605;28;20659;-90
2022/11/24 14:16:22;;;;;;;2.20;0.70;;;;;;;;;;5018252;28;20216;-90
2022/11/24 14:19:27;;;;;;;2.47;1.00;;;;;;;;;;5029639;28;20662;-89
2022/11/24 14:22:40;;;;;;;2.33;0.67;;;;;;;;;;5029427;28;20204;-89
2022/11/24 14:25:48;;;;;;;2.20;0.80;;;;;;;;;;5029262;28;20216;-90
2022/11/24 14:28:53;;;;;;;52.67;27.17;;;;;;;;;;5018152;28;20180;-89
2022/11/24 14:32:00;;;;;;;15.53;9.73;;;;;;;;;;5018235;28;20177;-90
2022/11/24 14:35:26;;;;;;;14.37;8.77;;;;;;;;;;5029973;28;20176;-90
2022/11/24 14:38:31;;;;;;;14.50;10.27;;;;;;;;;;5029793;28;20177;-89
2022/11/24 14:41:35;;;;;;;8.77;7.70;;;;;;;;;;5029388;28;20274;-89
2022/11/24 14:44:39;;;;;;;3.03;1.37;;;;;;;;;;5018117;28;20177;-89
2022/11/24 14:47:44;;;;;;;2.10;1.00;;;;;;;;;;5018242;28;20643;-89
2022/11/24 14:50:48;;;;;;;1.83;1.10;;;;;;;;;;5029365;28;20181;-89
2022/11/24 14:53:57;;;;;;;2.37;1.23;;;;;;;;;;5018077;28;20627;-89
2022/11/24 14:57:19;;;;;;;3.17;1.40;;;;;;;;;;5031871;28;20207;-89
2022/11/24 15:00:23;;;;;;;2.20;0.67;;;;;;;;;;5032669;28;20184;-89
2022/11/24 15:03:28;;;;;;;2.30;0.80;;;;;;;;;;5018659;28;20176;-90
2022/11/24 15:06:32;;;;;;;4.13;1.03;;;;;;;;;;5017925;28;20224;-88
2022/11/24 15:09:49;;;;;;;4.43;2.00;;;;;;;;;;5013225;28;20189;-90
2022/11/24 15:12:58;;;;;;;3.17;1.10;;;;;;;;;;5021461;28;20169;-90
2022/11/24 15:16:14;;;;;;;3.13;1.43;;;;;;;;;;5020992;28;20219;-90
2022/11/24 15:19:18;;;;;;;2.77;1.00;;;;;;;;;;5032746;28;20176;-90
2022/11/24 15:22:37;;;;;;;3.20;0.97;;;;;;;;;;5020873;28;20212;-90
2022/11/24 15:25:41;;;;;;;2.00;1.00;;;;;;;;;;5018108;28;20683;-90
2022/11/24 15:28:45;;;;;;;3.50;1.73;;;;;;;;;;5012227;28;20173;-89
2022/11/24 15:31:50;;;;;;;3.93;2.53;;;;;;;;;;5018941;28;20207;-90
2022/11/24 15:34:54;;;;;;;2.43;1.17;;;;;;;;;;5018050;28;20192;-90
2022/11/24 15:37:58;;;;;;;5.07;1.50;;;;;;;;;;5014945;28;20569;-92
2022/11/24 15:41:15;;;;;;;3.73;1.20;;;;;;;;;;5012285;28;20188;-92
2022/11/24 15:44:19;;;;;;;5.20;2.23;;;;;;;;;;5011836;28;20192;-92
2022/11/24 15:47:23;;;;;;;4.67;1.90;;;;;;;;;;5011700;28;20216;-92
2022/11/24 15:50:27;;;;;;;3.17;1.10;;;;;;;;;;5011859;28;20204;-92
2022/11/24 15:53:55;;;;;;;9.37;4.17;;;;;;;;;;5011920;28;20173;-92
2022/11/24 15:56:59;;;;;;;8.27;3.73;;;;;;;;;;5022790;28;20208;-92
2022/11/24 16:00:04;;;;;;;5.93;2.63;;;;;;;;;;5011781;28;20177;-92
2022/11/24 16:03:16;;;;;;;10.00;2.67;;;;;;;;;;5023035;28;20181;-92
2022/11/24 16:06:20;;;;;;;6.97;2.33;;;;;;;;;;5019993;28;20562;-92
2022/11/24 16:09:25;;;;;;;1.83;1.23;;;;;;;;;;5020182;28;20566;-93
2022/11/24 16:12:30;;;;;;;2.93;1.40;;;;;;;;;;5020133;28;20172;-92
2022/11/24 16:15:34;;;;;;;2.30;1.10;;;;;;;;;;5031665;28;20208;-92
2022/11/24 16:18:39;;;;;;;3.20;1.10;;;;;;;;;;5019101;28;20200;-92
2022/11/24 16:21:46;;;;;;;3.93;1.07;;;;;;;;;;5027664;28;20588;-92
2022/11/24 16:24:51;;;;;;;1.53;1.00;;;;;;;;;;5011491;28;20208;-91
2022/11/24 16:27:54;;;;;;;3.13;1.30;;;;;;;;;;5025714;22;20172;-88
2022/11/24 16:30:59;;;;;;;3.30;1.07;;;;;;;;;;4952979;28;20207;-88
2022/11/24 16:34:03;;;;;;;4.17;1.30;;;;;;;;;;4954702;28;20190;-87
2022/11/24 16:37:07;;;;;;;4.03;2.90;;;;;;;;;;4954589;28;20175;-88
2022/11/24 16:40:11;;;;;;;6.83;2.80;;;;;;;;;;4953797;28;20214;-88
2022/11/24 16:43:16;;;;;;;3.40;1.83;;;;;;;;;;4943486;28;20202;-89
2022/11/24 16:46:22;;;;;;;5.57;2.10;;;;;;;;;;4954945;28;20187;-87
2022/11/24 16:49:26;;;;;;;5.07;2.67;;;;;;;;;;4954385;28;20219;-88
2022/11/24 16:52:30;;;;;;;3.47;2.23;;;;;;;;;;4942861;28;20170;-88
2022/11/24 16:55:34;;;;;;;3.60;2.17;;;;;;;;;;4964706;28;20183;-89
2022/11/24 16:58:40;;;;;;;5.63;2.10;;;;;;;;;;4953822;28;20222;-89
2022/11/24 17:01:45;;;;;;;5.53;1.93;;;;;;;;;;4953540;28;20203;-88
2022/11/24 17:04:51;;;;;;;8.67;2.10;;;;;;;;;;4954469;28;20546;-90
2022/11/24 17:12:40;;;;;;;13.50;10.13;;;;;;;;;;4977556;28;20187;-88
2022/11/24 17:15:44;;;;;;;9.07;5.93;;;;;;;;;;4943262;28;20587;-88
2022/11/24 17:18:50;;;;;;;4.50;2.27;;;;;;;;;;4952852;28;20219;-88
2022/11/24 17:21:55;;;;;;;3.37;2.00;;;;;;;;;;4942314;28;20206;-88
2022/11/24 17:24:59;;;;;;;6.43;2.00;;;;;;;;;;4944780;28;20184;-85
2022/11/24 17:28:03;;;;;;;2.53;1.50;;;;;;;;;;4952934;28;20206;-87
2022/11/24 17:31:34;;;;;;;5.20;3.30;;;;;;;;;;4955606;28;20681;-87
2022/11/24 17:34:38;;;;;;;2.47;1.50;;;;;;;;;;4968313;28;20182;-87
2022/11/24 17:37:42;;;;;;;3.50;1.50;;;;;;;;;;4975752;28;20198;-87
2022/11/24 17:40:47;;;;;;;8.20;2.10;;;;;;;;;;4965160;28;20194;-87
2022/11/24 17:43:55;;;;;;;4.63;1.93;;;;;;;;;;4964337;28;20195;-87
2022/11/24 17:47:00;;;;;;;5.60;2.30;;;;;;;;;;4953458;28;20534;-88
2022/11/24 17:50:04;;;;;;;3.00;1.37;;;;;;;;;;4952749;28;20218;-87
2022/11/24 17:53:08;;;;;;;3.93;2.00;;;;;;;;;;4952553;28;20527;-87
2022/11/24 17:56:14;;;;;;;2.67;1.50;;;;;;;;;;4953062;28;20183;-87
2022/11/24 17:59:19;;;;;;;9.50;6.33;;;;;;;;;;4952503;28;20221;-87
2022/11/24 18:02:23;;;;;;;5.00;2.90;;;;;;;;;;4942145;28;20206;-87
2022/11/24 18:05:27;;;;;;;5.43;3.63;;;;;;;;;;4953122;28;20183;-87
2022/11/24 18:08:36;;;;;;;4.47;2.60;;;;;;;;;;4953297;28;20562;-87
2022/11/24 18:11:40;;;;;;;4.00;2.37;;;;;;;;;;4964261;28;20183;-87
2022/11/24 18:14:44;;;;;;;3.37;2.50;;;;;;;;;;4952492;28;20534;-87
2022/11/24 18:17:51;;;;;;;6.53;2.70;;;;;;;;;;4941705;28;20546;-87
2022/11/24 18:20:57;;;;;;;3.70;2.30;;;;;;;;;;4952659;28;20179;-88
2022/11/24 18:24:00;;;;;;;6.60;2.30;;;;;;;;;;4941792;28;20191;-87
2022/11/24 18:27:04;;;;;;;3.23;2.50;;;;;;;;;;4952874;28;20183;-87
2022/11/24 18:30:12;;;;;;;5.67;2.20;;;;;;;;;;4941394;28;20230;-88
2022/11/24 18:33:19;;;;;;;4.37;2.57;;;;;;;;;;4946571;28;20179;-87
2022/11/24 18:36:24;;;;;;;6.77;2.20;;;;;;;;;;4967782;28;20178;-87
2022/11/24 18:39:28;;;;;;;3.77;2.00;;;;;;;;;;4956023;28;20219;-87
2022/11/24 18:42:33;;;;;;;5.33;2.50;;;;;;;;;;4956212;28;20203;-87
2022/11/24 18:45:37;;;;;;;2.63;1.90;;;;;;;;;;4956207;28;20618;-87
2022/11/24 18:48:43;;;;;;;5.33;2.17;;;;;;;;;;4966992;28;20214;-87
2022/11/24 18:51:47;;;;;;;2.73;2.07;;;;;;;;;;4955393;28;20183;-88